sensor_id;sensor_type;location;lat;lon;timestamp;P1;durP1;ratioP1;P2;durP2;ratioP2
16624;SDS011;8426;48.496;9.098;2023-08-06T00:04:59;5.55;;;2.30;;
16624;SDS011;8426;48.496;9.098;2023-08-06T00:10:03;5.78;;;2.63;;
16624;SDS011;8426;48.496;9.098;2023-08-06T00:15:07;3.55;;;2.58;;
16624;SDS011;8426;48.496;9.098;2023-08-06T00:20:12;3.17;;;2.10;;
16624;SDS011;8426;48.496;9.098;2023-08-06T00:25:16;6.93;;;2.40;;
16624;SDS011;8426;48.496;9.098;2023-08-06T00:30:19;2.80;;;2.00;;
16624;SDS011;8426;48.496;9.098;2023-08-06T00:35:24;3.90;;;1.88;;
16624;SDS011;8426;48.496;9.098;2023-08-06T00:40:27;4.20;;;1.63;;
16624;SDS011;8426;48.496;9.098;2023-08-06T00:45:31;2.63;;;1.65;;
16624;SDS011;8426;48.496;9.098;2023-08-06T00:50:39;2.65;;;1.60;;
16624;SDS011;8426;48.496;9.098;2023-08-06T00:55:43;3.55;;;1.38;;
16624;SDS011;8426;48.496;9.098;2023-08-06T01:00:48;3.45;;;1.30;;
16624;SDS011;8426;48.496;9.098;2023-08-06T01:05:52;1.65;;;1.10;;
16624;SDS011;8426;48.496;9.098;2023-08-06T01:10:59;3.65;;;1.40;;
16624;SDS011;8426;48.496;9.098;2023-08-06T01:16:10;3.05;;;1.20;;
16624;SDS011;8426;48.496;9.098;2023-08-06T01:21:19;3.30;;;1.20;;
16624;SDS011;8426;48.496;9.098;2023-08-06T01:26:24;1.92;;;1.30;;
16624;SDS011;8426;48.496;9.098;2023-08-06T01:31:37;3.03;;;1.52;;
16624;SDS011;8426;48.496;9.098;2023-08-06T01:36:42;2.75;;;1.40;;
16624;SDS011;8426;48.496;9.098;2023-08-06T01:41:46;1.85;;;1.20;;
16624;SDS011;8426;48.496;9.098;2023-08-06T01:46:50;3.55;;;1.30;;
16624;SDS011;8426;48.496;9.098;2023-08-06T01:51:54;4.25;;;1.70;;
16624;SDS011;8426;48.496;9.098;2023-08-06T01:56:57;3.92;;;1.67;;
16624;SDS011;8426;48.496;9.098;2023-08-06T02:02:01;2.67;;;1.50;;
16624;SDS011;8426;48.496;9.098;2023-08-06T02:07:05;5.32;;;1.50;;
16624;SDS011;8426;48.496;9.098;2023-08-06T02:12:09;6.63;;;1.95;;
16624;SDS011;8426;48.496;9.098;2023-08-06T02:17:12;4.97;;;1.88;;
16624;SDS011;8426;48.496;9.098;2023-08-06T02:22:16;4.65;;;1.30;;
16624;SDS011;8426;48.496;9.098;2023-08-06T02:27:20;2.53;;;1.30;;
16624;SDS011;8426;48.496;9.098;2023-08-06T02:32:23;6.70;;;1.50;;
16624;SDS011;8426;48.496;9.098;2023-08-06T02:37:28;3.40;;;1.30;;
16624;SDS011;8426;48.496;9.098;2023-08-06T02:42:32;3.90;;;1.35;;
16624;SDS011;8426;48.496;9.098;2023-08-06T02:47:35;8.65;;;1.10;;
16624;SDS011;8426;48.496;9.098;2023-08-06T02:52:40;2.33;;;1.30;;
16624;SDS011;8426;48.496;9.098;2023-08-06T02:57:43;4.80;;;1.40;;
16624;SDS011;8426;48.496;9.098;2023-08-06T03:02:48;3.90;;;1.20;;
16624;SDS011;8426;48.496;9.098;2023-08-06T03:07:52;2.22;;;1.10;;
16624;SDS011;8426;48.496;9.098;2023-08-06T03:12:56;6.30;;;1.45;;
16624;SDS011;8426;48.496;9.098;2023-08-06T03:17:59;3.90;;;1.38;;
16624;SDS011;8426;48.496;9.098;2023-08-06T03:23:04;1.73;;;1.02;;
16624;SDS011;8426;48.496;9.098;2023-08-06T03:28:07;2.97;;;1.40;;
16624;SDS011;8426;48.496;9.098;2023-08-06T03:33:11;1.85;;;1.10;;
16624;SDS011;8426;48.496;9.098;2023-08-06T03:38:15;7.30;;;1.30;;
16624;SDS011;8426;48.496;9.098;2023-08-06T03:43:18;1.30;;;0.82;;
16624;SDS011;8426;48.496;9.098;2023-08-06T03:48:22;2.80;;;0.93;;
16624;SDS011;8426;48.496;9.098;2023-08-06T03:53:26;3.67;;;1.17;;
16624;SDS011;8426;48.496;9.098;2023-08-06T03:58:29;4.63;;;0.80;;
16624;SDS011;8426;48.496;9.098;2023-08-06T04:03:33;1.60;;;1.00;;
16624;SDS011;8426;48.496;9.098;2023-08-06T04:08:37;6.15;;;1.63;;
16624;SDS011;8426;48.496;9.098;2023-08-06T04:13:42;2.05;;;0.70;;
16624;SDS011;8426;48.496;9.098;2023-08-06T04:18:46;2.03;;;0.70;;
16624;SDS011;8426;48.496;9.098;2023-08-06T04:23:50;0.95;;;0.57;;
16624;SDS011;8426;48.496;9.098;2023-08-06T04:28:55;3.85;;;1.00;;
16624;SDS011;8426;48.496;9.098;2023-08-06T04:33:58;3.28;;;0.88;;
16624;SDS011;8426;48.496;9.098;2023-08-06T04:39:04;1.58;;;0.80;;
16624;SDS011;8426;48.496;9.098;2023-08-06T04:44:08;1.50;;;0.95;;
16624;SDS011;8426;48.496;9.098;2023-08-06T04:49:11;3.28;;;1.00;;
16624;SDS011;8426;48.496;9.098;2023-08-06T04:54:16;4.55;;;0.95;;
16624;SDS011;8426;48.496;9.098;2023-08-06T04:59:20;1.40;;;0.73;;
16624;SDS011;8426;48.496;9.098;2023-08-06T05:04:25;0.73;;;0.55;;
16624;SDS011;8426;48.496;9.098;2023-08-06T05:09:31;0.90;;;0.68;;
16624;SDS011;8426;48.496;9.098;2023-08-06T05:14:34;0.95;;;0.60;;
16624;SDS011;8426;48.496;9.098;2023-08-06T05:19:39;0.85;;;0.50;;
16624;SDS011;8426;48.496;9.098;2023-08-06T05:24:44;4.57;;;0.65;;
16624;SDS011;8426;48.496;9.098;2023-08-06T05:29:47;1.80;;;0.93;;
16624;SDS011;8426;48.496;9.098;2023-08-06T05:34:51;3.80;;;0.63;;
16624;SDS011;8426;48.496;9.098;2023-08-06T05:39:56;1.17;;;0.70;;
16624;SDS011;8426;48.496;9.098;2023-08-06T05:44:59;1.58;;;0.60;;
16624;SDS011;8426;48.496;9.098;2023-08-06T05:50:03;2.38;;;0.60;;
16624;SDS011;8426;48.496;9.098;2023-08-06T05:55:08;1.77;;;0.47;;
16624;SDS011;8426;48.496;9.098;2023-08-06T06:00:13;1.58;;;0.70;;
16624;SDS011;8426;48.496;9.098;2023-08-06T06:05:16;4.03;;;0.50;;
16624;SDS011;8426;48.496;9.098;2023-08-06T06:10:21;6.85;;;0.40;;
16624;SDS011;8426;48.496;9.098;2023-08-06T06:15:24;1.10;;;0.45;;
16624;SDS011;8426;48.496;9.098;2023-08-06T06:20:27;1.83;;;0.40;;
16624;SDS011;8426;48.496;9.098;2023-08-06T06:25:32;4.85;;;0.60;;
16624;SDS011;8426;48.496;9.098;2023-08-06T06:30:35;0.55;;;0.30;;
16624;SDS011;8426;48.496;9.098;2023-08-06T06:35:39;1.00;;;0.43;;
16624;SDS011;8426;48.496;9.098;2023-08-06T06:40:43;1.55;;;0.38;;
16624;SDS011;8426;48.496;9.098;2023-08-06T06:45:55;1.15;;;0.35;;
16624;SDS011;8426;48.496;9.098;2023-08-06T06:51:00;2.03;;;0.50;;
16624;SDS011;8426;48.496;9.098;2023-08-06T06:56:05;2.67;;;0.30;;
16624;SDS011;8426;48.496;9.098;2023-08-06T07:01:09;2.05;;;0.30;;
16624;SDS011;8426;48.496;9.098;2023-08-06T07:06:13;1.20;;;0.30;;
16624;SDS011;8426;48.496;9.098;2023-08-06T07:11:18;0.30;;;0.25;;
16624;SDS011;8426;48.496;9.098;2023-08-06T07:16:21;0.73;;;0.20;;
16624;SDS011;8426;48.496;9.098;2023-08-06T07:21:25;1.27;;;0.28;;
16624;SDS011;8426;48.496;9.098;2023-08-06T07:26:30;1.10;;;0.50;;
16624;SDS011;8426;48.496;9.098;2023-08-06T07:31:33;1.25;;;0.30;;
16624;SDS011;8426;48.496;9.098;2023-08-06T07:36:37;0.55;;;0.38;;
16624;SDS011;8426;48.496;9.098;2023-08-06T07:41:42;0.10;;;0.10;;
16624;SDS011;8426;48.496;9.098;2023-08-06T07:46:47;0.70;;;0.38;;
16624;SDS011;8426;48.496;9.098;2023-08-06T07:51:51;0.40;;;0.20;;
16624;SDS011;8426;48.496;9.098;2023-08-06T07:56:56;1.13;;;0.28;;
16624;SDS011;8426;48.496;9.098;2023-08-06T08:01:59;0.80;;;0.25;;
16624;SDS011;8426;48.496;9.098;2023-08-06T08:07:03;0.10;;;0.10;;
16624;SDS011;8426;48.496;9.098;2023-08-06T08:12:08;0.25;;;0.20;;
16624;SDS011;8426;48.496;9.098;2023-08-06T08:17:12;0.52;;;0.20;;
16624;SDS011;8426;48.496;9.098;2023-08-06T08:22:15;0.10;;;0.10;;
16624;SDS011;8426;48.496;9.098;2023-08-06T08:27:20;0.10;;;0.10;;
16624;SDS011;8426;48.496;9.098;2023-08-06T08:32:23;0.10;;;0.10;;
16624;SDS011;8426;48.496;9.098;2023-08-06T08:37:26;0.17;;;0.17;;
16624;SDS011;8426;48.496;9.098;2023-08-06T08:42:31;0.10;;;0.10;;
16624;SDS011;8426;48.496;9.098;2023-08-06T08:47:35;0.20;;;0.10;;
16624;SDS011;8426;48.496;9.098;2023-08-06T08:52:39;0.10;;;0.10;;
16624;SDS011;8426;48.496;9.098;2023-08-06T08:57:45;0.75;;;0.30;;
16624;SDS011;8426;48.496;9.098;2023-08-06T09:02:48;0.22;;;0.20;;
16624;SDS011;8426;48.496;9.098;2023-08-06T09:07:53;0.17;;;0.10;;
16624;SDS011;8426;48.496;9.098;2023-08-06T09:13:00;0.10;;;0.10;;
16624;SDS011;8426;48.496;9.098;2023-08-06T09:18:09;0.10;;;0.10;;
16624;SDS011;8426;48.496;9.098;2023-08-06T09:23:13;0.20;;;0.20;;
16624;SDS011;8426;48.496;9.098;2023-08-06T09:28:17;0.10;;;0.10;;
16624;SDS011;8426;48.496;9.098;2023-08-06T09:33:22;0.75;;;0.10;;
16624;SDS011;8426;48.496;9.098;2023-08-06T09:38:25;0.00;;;0.00;;
16624;SDS011;8426;48.496;9.098;2023-08-06T09:43:42;0.65;;;0.10;;
16624;SDS011;8426;48.496;9.098;2023-08-06T09:48:45;3.35;;;0.20;;
16624;SDS011;8426;48.496;9.098;2023-08-06T09:53:49;0.00;;;0.00;;
16624;SDS011;8426;48.496;9.098;2023-08-06T09:58:55;2.00;;;0.20;;
16624;SDS011;8426;48.496;9.098;2023-08-06T10:03:59;1.30;;;0.20;;
16624;SDS011;8426;48.496;9.098;2023-08-06T10:09:18;0.20;;;0.10;;
16624;SDS011;8426;48.496;9.098;2023-08-06T10:14:24;0.10;;;0.10;;
16624;SDS011;8426;48.496;9.098;2023-08-06T10:19:29;0.13;;;0.13;;
16624;SDS011;8426;48.496;9.098;2023-08-06T10:24:45;0.20;;;0.10;;
16624;SDS011;8426;48.496;9.098;2023-08-06T10:29:51;0.30;;;0.22;;
16624;SDS011;8426;48.496;9.098;2023-08-06T10:34:56;0.30;;;0.28;;
16624;SDS011;8426;48.496;9.098;2023-08-06T10:40:00;0.10;;;0.10;;
16624;SDS011;8426;48.496;9.098;2023-08-06T10:45:18;0.45;;;0.20;;
16624;SDS011;8426;48.496;9.098;2023-08-06T10:50:21;0.05;;;0.05;;
16624;SDS011;8426;48.496;9.098;2023-08-06T10:55:25;0.20;;;0.20;;
16624;SDS011;8426;48.496;9.098;2023-08-06T11:00:32;0.15;;;0.15;;
16624;SDS011;8426;48.496;9.098;2023-08-06T11:05:36;0.10;;;0.10;;
16624;SDS011;8426;48.496;9.098;2023-08-06T11:10:39;0.88;;;0.20;;
16624;SDS011;8426;48.496;9.098;2023-08-06T11:16:03;0.13;;;0.10;;
16624;SDS011;8426;48.496;9.098;2023-08-06T11:21:07;0.10;;;0.10;;
16624;SDS011;8426;48.496;9.098;2023-08-06T11:26:14;0.20;;;0.20;;
16624;SDS011;8426;48.496;9.098;2023-08-06T11:31:23;0.15;;;0.10;;
16624;SDS011;8426;48.496;9.098;2023-08-06T11:36:29;0.52;;;0.20;;
16624;SDS011;8426;48.496;9.098;2023-08-06T11:41:33;0.85;;;0.30;;
16624;SDS011;8426;48.496;9.098;2023-08-06T11:52:13;0.73;;;0.10;;
16624;SDS011;8426;48.496;9.098;2023-08-06T11:57:20;0.10;;;0.10;;
16624;SDS011;8426;48.496;9.098;2023-08-06T12:02:23;0.10;;;0.10;;
16624;SDS011;8426;48.496;9.098;2023-08-06T12:07:30;0.10;;;0.10;;
16624;SDS011;8426;48.496;9.098;2023-08-06T12:12:34;0.98;;;0.10;;
16624;SDS011;8426;48.496;9.098;2023-08-06T12:17:39;0.20;;;0.20;;
16624;SDS011;8426;48.496;9.098;2023-08-06T12:22:44;2.33;;;0.20;;
16624;SDS011;8426;48.496;9.098;2023-08-06T12:27:48;0.88;;;0.47;;
16624;SDS011;8426;48.496;9.098;2023-08-06T12:32:52;1.33;;;0.95;;
16624;SDS011;8426;48.496;9.098;2023-08-06T12:37:56;0.70;;;0.47;;
16624;SDS011;8426;48.496;9.098;2023-08-06T12:43:00;2.42;;;0.38;;
16624;SDS011;8426;48.496;9.098;2023-08-06T12:48:05;3.30;;;0.45;;
16624;SDS011;8426;48.496;9.098;2023-08-06T12:53:10;1.80;;;0.50;;
16624;SDS011;8426;48.496;9.098;2023-08-06T12:58:13;2.45;;;0.43;;
16624;SDS011;8426;48.496;9.098;2023-08-06T13:03:16;1.27;;;0.50;;
16624;SDS011;8426;48.496;9.098;2023-08-06T13:08:21;0.63;;;0.30;;
16624;SDS011;8426;48.496;9.098;2023-08-06T13:13:25;0.47;;;0.32;;
16624;SDS011;8426;48.496;9.098;2023-08-06T13:18:28;0.30;;;0.30;;
16624;SDS011;8426;48.496;9.098;2023-08-06T13:23:34;0.30;;;0.30;;
16624;SDS011;8426;48.496;9.098;2023-08-06T13:28:38;0.40;;;0.40;;
16624;SDS011;8426;48.496;9.098;2023-08-06T13:33:41;0.57;;;0.20;;
16624;SDS011;8426;48.496;9.098;2023-08-06T13:38:46;0.30;;;0.30;;
16624;SDS011;8426;48.496;9.098;2023-08-06T13:43:49;0.30;;;0.30;;
16624;SDS011;8426;48.496;9.098;2023-08-06T13:48:53;0.17;;;0.17;;
16624;SDS011;8426;48.496;9.098;2023-08-06T13:53:58;0.43;;;0.20;;
16624;SDS011;8426;48.496;9.098;2023-08-06T13:59:04;0.20;;;0.20;;
16624;SDS011;8426;48.496;9.098;2023-08-06T14:04:08;0.30;;;0.20;;
16624;SDS011;8426;48.496;9.098;2023-08-06T14:09:13;0.20;;;0.15;;
16624;SDS011;8426;48.496;9.098;2023-08-06T14:14:20;0.70;;;0.20;;
16624;SDS011;8426;48.496;9.098;2023-08-06T14:19:27;0.63;;;0.22;;
16624;SDS011;8426;48.496;9.098;2023-08-06T14:24:32;1.33;;;0.20;;
16624;SDS011;8426;48.496;9.098;2023-08-06T14:29:36;0.20;;;0.15;;
16624;SDS011;8426;48.496;9.098;2023-08-06T14:34:39;0.20;;;0.20;;
16624;SDS011;8426;48.496;9.098;2023-08-06T14:39:44;0.20;;;0.20;;
16624;SDS011;8426;48.496;9.098;2023-08-06T14:44:47;0.30;;;0.30;;
16624;SDS011;8426;48.496;9.098;2023-08-06T14:49:51;1.08;;;0.32;;
16624;SDS011;8426;48.496;9.098;2023-08-06T14:54:56;0.10;;;0.10;;
16624;SDS011;8426;48.496;9.098;2023-08-06T14:59:59;0.43;;;0.28;;
16624;SDS011;8426;48.496;9.098;2023-08-06T15:05:03;0.10;;;0.10;;
16624;SDS011;8426;48.496;9.098;2023-08-06T15:10:08;3.30;;;0.30;;
16624;SDS011;8426;48.496;9.098;2023-08-06T15:15:15;0.40;;;0.30;;
16624;SDS011;8426;48.496;9.098;2023-08-06T15:20:19;0.85;;;0.40;;
16624;SDS011;8426;48.496;9.098;2023-08-06T15:25:24;1.23;;;0.30;;
16624;SDS011;8426;48.496;9.098;2023-08-06T15:30:27;5.15;;;0.25;;
16624;SDS011;8426;48.496;9.098;2023-08-06T15:35:30;1.42;;;0.20;;
16624;SDS011;8426;48.496;9.098;2023-08-06T15:40:35;1.40;;;0.43;;
16624;SDS011;8426;48.496;9.098;2023-08-06T15:45:38;0.20;;;0.20;;
16624;SDS011;8426;48.496;9.098;2023-08-06T15:50:41;1.88;;;0.40;;
16624;SDS011;8426;48.496;9.098;2023-08-06T15:55:48;1.25;;;0.47;;
16624;SDS011;8426;48.496;9.098;2023-08-06T16:00:51;1.20;;;0.40;;
16624;SDS011;8426;48.496;9.098;2023-08-06T16:05:55;3.88;;;0.40;;
16624;SDS011;8426;48.496;9.098;2023-08-06T16:11:00;0.77;;;0.40;;
16624;SDS011;8426;48.496;9.098;2023-08-06T16:16:03;0.70;;;0.40;;
16624;SDS011;8426;48.496;9.098;2023-08-06T16:21:07;1.08;;;0.40;;
16624;SDS011;8426;48.496;9.098;2023-08-06T16:26:12;0.85;;;0.30;;
16624;SDS011;8426;48.496;9.098;2023-08-06T16:31:16;2.40;;;0.40;;
16624;SDS011;8426;48.496;9.098;2023-08-06T16:36:19;0.82;;;0.43;;
16624;SDS011;8426;48.496;9.098;2023-08-06T16:41:24;0.98;;;0.30;;
16624;SDS011;8426;48.496;9.098;2023-08-06T16:46:27;3.90;;;0.32;;
16624;SDS011;8426;48.496;9.098;2023-08-06T16:51:30;1.42;;;0.65;;
16624;SDS011;8426;48.496;9.098;2023-08-06T16:56:35;0.70;;;0.47;;
16624;SDS011;8426;48.496;9.098;2023-08-06T17:01:38;0.60;;;0.40;;
16624;SDS011;8426;48.496;9.098;2023-08-06T17:06:42;0.52;;;0.40;;
16624;SDS011;8426;48.496;9.098;2023-08-06T17:11:46;0.30;;;0.30;;
16624;SDS011;8426;48.496;9.098;2023-08-06T17:16:50;0.40;;;0.40;;
16624;SDS011;8426;48.496;9.098;2023-08-06T17:21:54;0.93;;;0.40;;
16624;SDS011;8426;48.496;9.098;2023-08-06T17:27:00;1.27;;;0.47;;
16624;SDS011;8426;48.496;9.098;2023-08-06T17:32:03;0.70;;;0.50;;
16624;SDS011;8426;48.496;9.098;2023-08-06T17:37:06;0.45;;;0.40;;
16624;SDS011;8426;48.496;9.098;2023-08-06T17:42:11;0.98;;;0.50;;
16624;SDS011;8426;48.496;9.098;2023-08-06T17:47:14;0.45;;;0.43;;
16624;SDS011;8426;48.496;9.098;2023-08-06T17:52:36;1.60;;;0.60;;
16624;SDS011;8426;48.496;9.098;2023-08-06T17:57:41;0.88;;;0.50;;
16624;SDS011;8426;48.496;9.098;2023-08-06T18:02:44;2.85;;;0.70;;
16624;SDS011;8426;48.496;9.098;2023-08-06T18:07:47;3.17;;;0.60;;
16624;SDS011;8426;48.496;9.098;2023-08-06T18:12:52;1.83;;;0.60;;
16624;SDS011;8426;48.496;9.098;2023-08-06T18:17:56;2.50;;;0.60;;
16624;SDS011;8426;48.496;9.098;2023-08-06T18:22:59;1.38;;;0.98;;
16624;SDS011;8426;48.496;9.098;2023-08-06T18:28:05;2.63;;;0.73;;
16624;SDS011;8426;48.496;9.098;2023-08-06T18:33:08;3.50;;;0.63;;
16624;SDS011;8426;48.496;9.098;2023-08-06T18:38:13;2.63;;;0.70;;
16624;SDS011;8426;48.496;9.098;2023-08-06T18:43:18;1.90;;;0.70;;
16624;SDS011;8426;48.496;9.098;2023-08-06T18:48:21;1.10;;;0.70;;
16624;SDS011;8426;48.496;9.098;2023-08-06T18:53:25;2.55;;;0.90;;
16624;SDS011;8426;48.496;9.098;2023-08-06T18:58:30;1.27;;;0.80;;
16624;SDS011;8426;48.496;9.098;2023-08-06T19:03:33;2.75;;;0.80;;
16624;SDS011;8426;48.496;9.098;2023-08-06T19:08:37;4.68;;;0.80;;
16624;SDS011;8426;48.496;9.098;2023-08-06T19:13:41;6.32;;;0.98;;
16624;SDS011;8426;48.496;9.098;2023-08-06T19:18:45;1.85;;;0.68;;
16624;SDS011;8426;48.496;9.098;2023-08-06T19:23:50;2.75;;;0.80;;
16624;SDS011;8426;48.496;9.098;2023-08-06T19:28:55;1.77;;;0.80;;
16624;SDS011;8426;48.496;9.098;2023-08-06T19:33:59;1.95;;;0.65;;
16624;SDS011;8426;48.496;9.098;2023-08-06T19:39:03;2.75;;;1.00;;
16624;SDS011;8426;48.496;9.098;2023-08-06T19:44:08;2.45;;;0.80;;
16624;SDS011;8426;48.496;9.098;2023-08-06T19:49:11;10.40;;;1.17;;
16624;SDS011;8426;48.496;9.098;2023-08-06T19:54:14;1.83;;;1.00;;
16624;SDS011;8426;48.496;9.098;2023-08-06T19:59:20;2.13;;;1.05;;
16624;SDS011;8426;48.496;9.098;2023-08-06T20:04:24;1.45;;;0.90;;
16624;SDS011;8426;48.496;9.098;2023-08-06T20:09:28;1.25;;;0.73;;
16624;SDS011;8426;48.496;9.098;2023-08-06T20:14:33;3.78;;;0.93;;
16624;SDS011;8426;48.496;9.098;2023-08-06T20:19:39;1.35;;;0.80;;
16624;SDS011;8426;48.496;9.098;2023-08-06T20:24:42;1.40;;;0.90;;
16624;SDS011;8426;48.496;9.098;2023-08-06T20:29:47;1.45;;;0.77;;
16624;SDS011;8426;48.496;9.098;2023-08-06T20:34:50;1.38;;;0.68;;
16624;SDS011;8426;48.496;9.098;2023-08-06T20:39:54;1.92;;;0.80;;
16624;SDS011;8426;48.496;9.098;2023-08-06T20:44:59;1.33;;;0.73;;
16624;SDS011;8426;48.496;9.098;2023-08-06T20:50:02;1.00;;;0.80;;
16624;SDS011;8426;48.496;9.098;2023-08-06T20:55:06;2.30;;;0.88;;
16624;SDS011;8426;48.496;9.098;2023-08-06T21:00:12;3.92;;;0.80;;
16624;SDS011;8426;48.496;9.098;2023-08-06T21:05:16;2.47;;;1.08;;
16624;SDS011;8426;48.496;9.098;2023-08-06T21:10:19;3.40;;;0.77;;
16624;SDS011;8426;48.496;9.098;2023-08-06T21:15:24;0.77;;;0.68;;
16624;SDS011;8426;48.496;9.098;2023-08-06T21:20:27;2.90;;;0.80;;
16624;SDS011;8426;48.496;9.098;2023-08-06T21:25:34;3.53;;;0.60;;
16624;SDS011;8426;48.496;9.098;2023-08-06T21:30:39;1.85;;;0.73;;
16624;SDS011;8426;48.496;9.098;2023-08-06T21:35:42;2.88;;;0.63;;
16624;SDS011;8426;48.496;9.098;2023-08-06T21:40:46;5.25;;;1.08;;
16624;SDS011;8426;48.496;9.098;2023-08-06T21:45:50;4.72;;;0.60;;
16624;SDS011;8426;48.496;9.098;2023-08-06T21:50:54;1.75;;;0.80;;
16624;SDS011;8426;48.496;9.098;2023-08-06T21:56:02;1.85;;;0.70;;
16624;SDS011;8426;48.496;9.098;2023-08-06T22:01:09;1.80;;;0.80;;
16624;SDS011;8426;48.496;9.098;2023-08-06T22:06:14;5.20;;;0.85;;
16624;SDS011;8426;48.496;9.098;2023-08-06T22:11:18;1.23;;;0.70;;
16624;SDS011;8426;48.496;9.098;2023-08-06T22:16:22;2.30;;;0.55;;
16624;SDS011;8426;48.496;9.098;2023-08-06T22:21:26;2.10;;;0.70;;
16624;SDS011;8426;48.496;9.098;2023-08-06T22:26:29;1.10;;;0.75;;
16624;SDS011;8426;48.496;9.098;2023-08-06T22:31:34;4.40;;;0.90;;
16624;SDS011;8426;48.496;9.098;2023-08-06T22:36:38;1.10;;;0.68;;
16624;SDS011;8426;48.496;9.098;2023-08-06T22:41:41;1.58;;;0.77;;
16624;SDS011;8426;48.496;9.098;2023-08-06T22:46:47;2.10;;;0.80;;
16624;SDS011;8426;48.496;9.098;2023-08-06T22:51:51;3.38;;;0.70;;
16624;SDS011;8426;48.496;9.098;2023-08-06T22:56:54;3.97;;;0.90;;
16624;SDS011;8426;48.496;9.098;2023-08-06T23:01:59;1.50;;;0.85;;
16624;SDS011;8426;48.496;9.098;2023-08-06T23:07:03;2.05;;;0.63;;
16624;SDS011;8426;48.496;9.098;2023-08-06T23:12:07;1.23;;;0.75;;
16624;SDS011;8426;48.496;9.098;2023-08-06T23:17:12;3.78;;;0.85;;
16624;SDS011;8426;48.496;9.098;2023-08-06T23:22:15;5.18;;;0.80;;
16624;SDS011;8426;48.496;9.098;2023-08-06T23:27:19;2.47;;;0.93;;
16624;SDS011;8426;48.496;9.098;2023-08-06T23:32:23;3.35;;;0.93;;
16624;SDS011;8426;48.496;9.098;2023-08-06T23:37:30;1.77;;;0.90;;
16624;SDS011;8426;48.496;9.098;2023-08-06T23:42:35;3.97;;;0.88;;
16624;SDS011;8426;48.496;9.098;2023-08-06T23:47:39;1.77;;;0.63;;
16624;SDS011;8426;48.496;9.098;2023-08-06T23:52:43;1.70;;;0.90;;
16624;SDS011;8426;48.496;9.098;2023-08-06T23:57:46;2.50;;;0.80;;
